sensor_id;sensor_type;location;lat;lon;timestamp;temperature;humidity
4453;DHT22;2239;48.152;11.584;2022-11-23T00:00:25;5.90;99.90
4453;DHT22;2239;48.152;11.584;2022-11-23T00:02:57;5.90;99.90
4453;DHT22;2239;48.152;11.584;2022-11-23T00:05:23;5.90;99.90
4453;DHT22;2239;48.152;11.584;2022-11-23T00:07:49;5.90;99.90
4453;DHT22;2239;48.152;11.584;2022-11-23T00:10:15;5.90;99.90
4453;DHT22;2239;48.152;11.584;2022-11-23T00:12:42;5.90;99.90
4453;DHT22;2239;48.152;11.584;2022-11-23T00:15:08;5.90;99.90
4453;DHT22;2239;48.152;11.584;2022-11-23T00:17:34;5.90;99.90
4453;DHT22;2239;48.152;11.584;2022-11-23T00:20:00;5.90;99.90
4453;DHT22;2239;48.152;11.584;2022-11-23T00:22:25;5.90;99.90
4453;DHT22;2239;48.152;11.584;2022-11-23T00:24:51;5.90;99.90
4453;DHT22;2239;48.152;11.584;2022-11-23T00:27:16;5.90;99.90
4453;DHT22;2239;48.152;11.584;2022-11-23T00:29:42;5.90;99.90
4453;DHT22;2239;48.152;11.584;2022-11-23T00:32:07;5.90;99.90
4453;DHT22;2239;48.152;11.584;2022-11-23T00:34:33;5.90;99.90
4453;DHT22;2239;48.152;11.584;2022-11-23T00:36:58;5.90;99.90
4453;DHT22;2239;48.152;11.584;2022-11-23T00:39:24;5.90;99.90
4453;DHT22;2239;48.152;11.584;2022-11-23T00:41:49;5.90;99.90
4453;DHT22;2239;48.152;11.584;2022-11-23T00:44:15;5.90;99.90
4453;DHT22;2239;48.152;11.584;2022-11-23T00:46:41;5.90;99.90
4453;DHT22;2239;48.152;11.584;2022-11-23T00:49:06;5.90;99.90
4453;DHT22;2239;48.152;11.584;2022-11-23T00:51:34;5.90;99.90
4453;DHT22;2239;48.152;11.584;2022-11-23T00:54:01;5.90;99.90
4453;DHT22;2239;48.152;11.584;2022-11-23T00:56:27;5.90;99.90
4453;DHT22;2239;48.152;11.584;2022-11-23T00:58:55;5.90;99.90
4453;DHT22;2239;48.152;11.584;2022-11-23T01:01:23;5.90;99.90
4453;DHT22;2239;48.152;11.584;2022-11-23T01:03:52;5.90;99.90
4453;DHT22;2239;48.152;11.584;2022-11-23T01:06:23;5.90;99.90
4453;DHT22;2239;48.152;11.584;2022-11-23T01:08:51;5.90;99.90
4453;DHT22;2239;48.152;11.584;2022-11-23T01:11:18;5.80;99.90
4453;DHT22;2239;48.152;11.584;2022-11-23T01:13:45;5.90;99.90
4453;DHT22;2239;48.152;11.584;2022-11-23T01:16:17;5.80;99.90
4453;DHT22;2239;48.152;11.584;2022-11-23T01:18:43;5.80;99.90
4453;DHT22;2239;48.152;11.584;2022-11-23T01:21:09;5.80;99.90
4453;DHT22;2239;48.152;11.584;2022-11-23T01:23:35;5.70;99.90
4453;DHT22;2239;48.152;11.584;2022-11-23T01:26:08;5.70;99.90
4453;DHT22;2239;48.152;11.584;2022-11-23T01:28:35;5.70;99.90
4453;DHT22;2239;48.152;11.584;2022-11-23T01:31:05;5.70;99.90
4453;DHT22;2239;48.152;11.584;2022-11-23T01:33:31;5.70;99.90
4453;DHT22;2239;48.152;11.584;2022-11-23T01:35:56;5.70;99.90
4453;DHT22;2239;48.152;11.584;2022-11-23T01:38:22;5.70;99.90
4453;DHT22;2239;48.152;11.584;2022-11-23T01:40:47;5.70;99.90
4453;DHT22;2239;48.152;11.584;2022-11-23T01:43:15;5.60;99.90
4453;DHT22;2239;48.152;11.584;2022-11-23T01:48:22;5.60;99.90
4453;DHT22;2239;48.152;11.584;2022-11-23T01:50:50;5.50;99.90
4453;DHT22;2239;48.152;11.584;2022-11-23T01:53:17;5.50;99.90
4453;DHT22;2239;48.152;11.584;2022-11-23T01:55:45;5.50;99.90
4453;DHT22;2239;48.152;11.584;2022-11-23T01:58:14;5.50;99.90
4453;DHT22;2239;48.152;11.584;2022-11-23T02:00:39;5.50;99.90
4453;DHT22;2239;48.152;11.584;2022-11-23T02:03:06;5.50;99.90
4453;DHT22;2239;48.152;11.584;2022-11-23T02:05:42;5.50;99.90
4453;DHT22;2239;48.152;11.584;2022-11-23T02:08:09;5.50;99.90
4453;DHT22;2239;48.152;11.584;2022-11-23T02:10:35;5.50;99.90
4453;DHT22;2239;48.152;11.584;2022-11-23T02:13:07;5.50;99.90
4453;DHT22;2239;48.152;11.584;2022-11-23T02:15:34;5.50;99.90
4453;DHT22;2239;48.152;11.584;2022-11-23T02:18:02;5.50;99.90
4453;DHT22;2239;48.152;11.584;2022-11-23T02:20:28;5.50;99.90
4453;DHT22;2239;48.152;11.584;2022-11-23T02:28:22;5.40;99.90
4453;DHT22;2239;48.152;11.584;2022-11-23T02:30:50;5.40;99.90
4453;DHT22;2239;48.152;11.584;2022-11-23T02:33:17;5.40;99.90
4453;DHT22;2239;48.152;11.584;2022-11-23T02:35:56;5.40;99.90
4453;DHT22;2239;48.152;11.584;2022-11-23T02:38:24;5.40;99.90
4453;DHT22;2239;48.152;11.584;2022-11-23T02:40:50;5.40;99.90
4453;DHT22;2239;48.152;11.584;2022-11-23T02:43:16;5.40;99.90
4453;DHT22;2239;48.152;11.584;2022-11-23T02:45:49;5.40;99.90
4453;DHT22;2239;48.152;11.584;2022-11-23T02:48:16;5.40;99.90
4453;DHT22;2239;48.152;11.584;2022-11-23T02:50:42;5.40;99.90
4453;DHT22;2239;48.152;11.584;2022-11-23T02:53:09;5.40;99.90
4453;DHT22;2239;48.152;11.584;2022-11-23T02:55:34;5.40;99.90
4453;DHT22;2239;48.152;11.584;2022-11-23T02:58:01;5.40;99.90
4453;DHT22;2239;48.152;11.584;2022-11-23T03:00:27;5.40;99.90
4453;DHT22;2239;48.152;11.584;2022-11-23T03:02:52;5.40;99.90
4453;DHT22;2239;48.152;11.584;2022-11-23T03:05:18;5.30;99.90
4453;DHT22;2239;48.152;11.584;2022-11-23T03:07:43;5.30;99.90
4453;DHT22;2239;48.152;11.584;2022-11-23T03:10:09;5.20;99.90
4453;DHT22;2239;48.152;11.584;2022-11-23T03:12:35;5.20;99.90
4453;DHT22;2239;48.152;11.584;2022-11-23T03:15:01;5.20;99.90
4453;DHT22;2239;48.152;11.584;2022-11-23T03:17:27;5.20;99.90
4453;DHT22;2239;48.152;11.584;2022-11-23T03:19:52;5.20;99.90
4453;DHT22;2239;48.152;11.584;2022-11-23T03:22:18;5.20;99.90
4453;DHT22;2239;48.152;11.584;2022-11-23T03:24:44;5.20;99.90
4453;DHT22;2239;48.152;11.584;2022-11-23T03:27:10;5.10;99.90
4453;DHT22;2239;48.152;11.584;2022-11-23T03:29:35;5.10;99.90
4453;DHT22;2239;48.152;11.584;2022-11-23T03:32:01;5.10;99.90
4453;DHT22;2239;48.152;11.584;2022-11-23T03:34:27;5.10;99.90
4453;DHT22;2239;48.152;11.584;2022-11-23T03:36:52;5.00;99.90
4453;DHT22;2239;48.152;11.584;2022-11-23T03:39:18;5.00;99.90
4453;DHT22;2239;48.152;11.584;2022-11-23T03:41:43;5.00;99.90
4453;DHT22;2239;48.152;11.584;2022-11-23T03:44:09;5.00;99.90
4453;DHT22;2239;48.152;11.584;2022-11-23T03:46:34;4.90;99.90
4453;DHT22;2239;48.152;11.584;2022-11-23T03:49:00;4.80;99.90
4453;DHT22;2239;48.152;11.584;2022-11-23T03:51:26;4.80;99.90
4453;DHT22;2239;48.152;11.584;2022-11-23T03:53:51;4.80;99.90
4453;DHT22;2239;48.152;11.584;2022-11-23T03:56:17;4.80;99.90
4453;DHT22;2239;48.152;11.584;2022-11-23T03:58:42;4.80;99.90
4453;DHT22;2239;48.152;11.584;2022-11-23T04:01:08;4.70;99.90
4453;DHT22;2239;48.152;11.584;2022-11-23T04:03:33;4.70;99.90
4453;DHT22;2239;48.152;11.584;2022-11-23T04:05:59;4.70;99.90
4453;DHT22;2239;48.152;11.584;2022-11-23T04:08:25;4.70;99.90
4453;DHT22;2239;48.152;11.584;2022-11-23T04:10:50;4.60;99.90
4453;DHT22;2239;48.152;11.584;2022-11-23T04:13:16;4.60;99.90
4453;DHT22;2239;48.152;11.584;2022-11-23T04:15:41;4.60;99.90
4453;DHT22;2239;48.152;11.584;2022-11-23T04:18:07;4.60;99.90
4453;DHT22;2239;48.152;11.584;2022-11-23T04:20:33;4.50;99.90
4453;DHT22;2239;48.152;11.584;2022-11-23T04:22:58;4.50;99.90
4453;DHT22;2239;48.152;11.584;2022-11-23T04:25:24;4.50;99.90
4453;DHT22;2239;48.152;11.584;2022-11-23T04:27:49;4.60;99.90
4453;DHT22;2239;48.152;11.584;2022-11-23T04:30:15;4.50;99.90
4453;DHT22;2239;48.152;11.584;2022-11-23T04:32:43;4.50;99.90
4453;DHT22;2239;48.152;11.584;2022-11-23T04:35:09;4.50;99.90
4453;DHT22;2239;48.152;11.584;2022-11-23T04:37:35;4.40;99.90
4453;DHT22;2239;48.152;11.584;2022-11-23T04:40:00;4.50;99.90
4453;DHT22;2239;48.152;11.584;2022-11-23T04:42:26;4.50;99.90
4453;DHT22;2239;48.152;11.584;2022-11-23T04:44:51;4.50;99.90
4453;DHT22;2239;48.152;11.584;2022-11-23T04:47:17;4.50;99.90
4453;DHT22;2239;48.152;11.584;2022-11-23T04:49:42;4.40;99.90
4453;DHT22;2239;48.152;11.584;2022-11-23T04:52:08;4.40;99.90
4453;DHT22;2239;48.152;11.584;2022-11-23T04:54:33;4.50;99.90
4453;DHT22;2239;48.152;11.584;2022-11-23T04:56:59;4.40;99.90
4453;DHT22;2239;48.152;11.584;2022-11-23T04:59:24;4.40;99.90
4453;DHT22;2239;48.152;11.584;2022-11-23T05:01:50;4.40;99.90
4453;DHT22;2239;48.152;11.584;2022-11-23T05:04:19;4.40;99.90
4453;DHT22;2239;48.152;11.584;2022-11-23T05:06:45;4.40;99.90
4453;DHT22;2239;48.152;11.584;2022-11-23T05:09:11;4.40;99.90
4453;DHT22;2239;48.152;11.584;2022-11-23T05:11:37;4.40;99.90
4453;DHT22;2239;48.152;11.584;2022-11-23T05:14:02;4.40;99.90
4453;DHT22;2239;48.152;11.584;2022-11-23T05:16:28;4.40;99.90
4453;DHT22;2239;48.152;11.584;2022-11-23T05:18:54;4.40;99.90
4453;DHT22;2239;48.152;11.584;2022-11-23T05:21:19;4.40;99.90
4453;DHT22;2239;48.152;11.584;2022-11-23T05:23:45;4.50;99.90
4453;DHT22;2239;48.152;11.584;2022-11-23T05:26:11;4.50;99.90
4453;DHT22;2239;48.152;11.584;2022-11-23T05:28:36;4.60;99.90
4453;DHT22;2239;48.152;11.584;2022-11-23T05:31:03;4.60;99.90
4453;DHT22;2239;48.152;11.584;2022-11-23T05:33:28;4.60;99.90
4453;DHT22;2239;48.152;11.584;2022-11-23T05:35:54;4.60;99.90
4453;DHT22;2239;48.152;11.584;2022-11-23T05:38:19;4.70;99.90
4453;DHT22;2239;48.152;11.584;2022-11-23T05:40:45;4.70;99.90
4453;DHT22;2239;48.152;11.584;2022-11-23T05:43:11;4.60;99.90
4453;DHT22;2239;48.152;11.584;2022-11-23T05:45:37;4.60;99.90
4453;DHT22;2239;48.152;11.584;2022-11-23T05:48:03;4.60;99.90
4453;DHT22;2239;48.152;11.584;2022-11-23T05:50:29;4.50;99.90
4453;DHT22;2239;48.152;11.584;2022-11-23T05:52:55;4.50;99.90
4453;DHT22;2239;48.152;11.584;2022-11-23T05:55:21;4.50;99.90
4453;DHT22;2239;48.152;11.584;2022-11-23T05:57:47;4.50;99.90
4453;DHT22;2239;48.152;11.584;2022-11-23T06:00:13;4.50;99.90
4453;DHT22;2239;48.152;11.584;2022-11-23T06:02:38;4.60;99.90
4453;DHT22;2239;48.152;11.584;2022-11-23T06:05:04;4.60;99.90
4453;DHT22;2239;48.152;11.584;2022-11-23T06:07:33;4.60;99.90
4453;DHT22;2239;48.152;11.584;2022-11-23T06:09:59;4.60;99.90
4453;DHT22;2239;48.152;11.584;2022-11-23T06:12:26;4.60;99.90
4453;DHT22;2239;48.152;11.584;2022-11-23T06:14:52;4.60;99.90
4453;DHT22;2239;48.152;11.584;2022-11-23T06:17:17;4.50;99.90
4453;DHT22;2239;48.152;11.584;2022-11-23T06:19:43;4.50;99.90
4453;DHT22;2239;48.152;11.584;2022-11-23T06:22:09;4.50;99.90
4453;DHT22;2239;48.152;11.584;2022-11-23T06:24:34;4.50;99.90
4453;DHT22;2239;48.152;11.584;2022-11-23T06:27:00;4.50;99.90
4453;DHT22;2239;48.152;11.584;2022-11-23T06:29:25;4.50;99.90
4453;DHT22;2239;48.152;11.584;2022-11-23T06:31:51;4.50;99.90
4453;DHT22;2239;48.152;11.584;2022-11-23T06:34:16;4.50;99.90
4453;DHT22;2239;48.152;11.584;2022-11-23T06:36:42;4.50;99.90
4453;DHT22;2239;48.152;11.584;2022-11-23T06:39:08;4.50;99.90
4453;DHT22;2239;48.152;11.584;2022-11-23T06:41:34;4.50;99.90
4453;DHT22;2239;48.152;11.584;2022-11-23T06:44:00;4.50;99.90
4453;DHT22;2239;48.152;11.584;2022-11-23T06:46:25;4.60;99.90
4453;DHT22;2239;48.152;11.584;2022-11-23T06:48:51;4.60;99.90
4453;DHT22;2239;48.152;11.584;2022-11-23T06:51:17;4.60;99.90
4453;DHT22;2239;48.152;11.584;2022-11-23T06:53:42;4.70;99.90
4453;DHT22;2239;48.152;11.584;2022-11-23T06:56:08;4.90;99.90
4453;DHT22;2239;48.152;11.584;2022-11-23T06:58:34;5.80;99.90
4453;DHT22;2239;48.152;11.584;2022-11-23T07:01:02;7.40;99.90
4453;DHT22;2239;48.152;11.584;2022-11-23T07:03:28;8.30;99.90
4453;DHT22;2239;48.152;11.584;2022-11-23T07:05:54;8.40;99.90
4453;DHT22;2239;48.152;11.584;2022-11-23T07:08:20;8.00;99.90
4453;DHT22;2239;48.152;11.584;2022-11-23T07:10:45;7.20;99.90
4453;DHT22;2239;48.152;11.584;2022-11-23T07:13:11;6.50;99.90
4453;DHT22;2239;48.152;11.584;2022-11-23T07:15:37;6.00;99.90
4453;DHT22;2239;48.152;11.584;2022-11-23T07:18:03;5.70;99.90
4453;DHT22;2239;48.152;11.584;2022-11-23T07:20:29;5.40;99.90
4453;DHT22;2239;48.152;11.584;2022-11-23T07:23:13;5.20;99.90
4453;DHT22;2239;48.152;11.584;2022-11-23T07:25:38;5.20;99.90
4453;DHT22;2239;48.152;11.584;2022-11-23T07:28:06;5.10;99.90
4453;DHT22;2239;48.152;11.584;2022-11-23T07:30:33;5.10;99.90
4453;DHT22;2239;48.152;11.584;2022-11-23T07:33:04;5.10;99.90
4453;DHT22;2239;48.152;11.584;2022-11-23T07:35:31;5.10;99.90
4453;DHT22;2239;48.152;11.584;2022-11-23T07:37:57;5.10;99.90
4453;DHT22;2239;48.152;11.584;2022-11-23T07:40:23;5.10;99.90
4453;DHT22;2239;48.152;11.584;2022-11-23T07:42:49;5.20;99.90
4453;DHT22;2239;48.152;11.584;2022-11-23T07:45:15;5.20;99.90
4453;DHT22;2239;48.152;11.584;2022-11-23T07:47:40;5.20;99.90
4453;DHT22;2239;48.152;11.584;2022-11-23T07:50:07;5.30;99.90
4453;DHT22;2239;48.152;11.584;2022-11-23T07:52:35;5.40;99.90
4453;DHT22;2239;48.152;11.584;2022-11-23T07:55:01;5.50;99.90
4453;DHT22;2239;48.152;11.584;2022-11-23T07:57:27;5.60;99.90
4453;DHT22;2239;48.152;11.584;2022-11-23T07:59:52;5.70;99.90
4453;DHT22;2239;48.152;11.584;2022-11-23T08:02:18;5.80;99.90
4453;DHT22;2239;48.152;11.584;2022-11-23T08:04:43;5.90;99.90
4453;DHT22;2239;48.152;11.584;2022-11-23T08:07:09;5.90;99.90
4453;DHT22;2239;48.152;11.584;2022-11-23T08:09:35;6.00;99.90
4453;DHT22;2239;48.152;11.584;2022-11-23T08:12:00;6.00;99.90
4453;DHT22;2239;48.152;11.584;2022-11-23T08:14:26;6.00;99.90
4453;DHT22;2239;48.152;11.584;2022-11-23T08:16:52;6.10;99.90
4453;DHT22;2239;48.152;11.584;2022-11-23T08:19:17;6.20;99.90
4453;DHT22;2239;48.152;11.584;2022-11-23T08:21:43;6.10;99.90
4453;DHT22;2239;48.152;11.584;2022-11-23T08:24:09;6.10;99.90
4453;DHT22;2239;48.152;11.584;2022-11-23T08:26:35;6.10;99.90
4453;DHT22;2239;48.152;11.584;2022-11-23T08:29:01;6.30;99.90
4453;DHT22;2239;48.152;11.584;2022-11-23T08:31:26;6.70;99.90
4453;DHT22;2239;48.152;11.584;2022-11-23T08:33:52;6.90;99.90
4453;DHT22;2239;48.152;11.584;2022-11-23T08:36:17;7.30;99.90
4453;DHT22;2239;48.152;11.584;2022-11-23T08:38:43;7.90;99.90
4453;DHT22;2239;48.152;11.584;2022-11-23T08:41:09;8.60;99.90
4453;DHT22;2239;48.152;11.584;2022-11-23T08:43:34;9.30;99.90
4453;DHT22;2239;48.152;11.584;2022-11-23T08:46:01;9.80;99.90
4453;DHT22;2239;48.152;11.584;2022-11-23T08:48:26;10.10;99.90
4453;DHT22;2239;48.152;11.584;2022-11-23T08:50:53;10.20;99.90
4453;DHT22;2239;48.152;11.584;2022-11-23T08:53:18;10.20;99.90
4453;DHT22;2239;48.152;11.584;2022-11-23T08:55:44;10.10;99.90
4453;DHT22;2239;48.152;11.584;2022-11-23T08:58:10;10.20;99.90
4453;DHT22;2239;48.152;11.584;2022-11-23T09:00:36;10.10;99.90
4453;DHT22;2239;48.152;11.584;2022-11-23T09:03:02;10.20;99.90
4453;DHT22;2239;48.152;11.584;2022-11-23T09:05:28;10.10;99.90
4453;DHT22;2239;48.152;11.584;2022-11-23T09:07:58;9.80;99.90
4453;DHT22;2239;48.152;11.584;2022-11-23T09:10:24;9.70;99.90
4453;DHT22;2239;48.152;11.584;2022-11-23T09:12:49;9.70;99.90
4453;DHT22;2239;48.152;11.584;2022-11-23T09:15:15;9.80;99.90
4453;DHT22;2239;48.152;11.584;2022-11-23T09:17:41;9.80;99.90
4453;DHT22;2239;48.152;11.584;2022-11-23T09:20:07;9.70;99.90
4453;DHT22;2239;48.152;11.584;2022-11-23T09:22:33;9.70;99.90
4453;DHT22;2239;48.152;11.584;2022-11-23T09:24:58;10.00;99.90
4453;DHT22;2239;48.152;11.584;2022-11-23T09:27:24;10.30;99.90
4453;DHT22;2239;48.152;11.584;2022-11-23T09:29:50;10.20;99.90
4453;DHT22;2239;48.152;11.584;2022-11-23T09:32:15;10.30;99.90
4453;DHT22;2239;48.152;11.584;2022-11-23T09:34:41;10.30;99.90
4453;DHT22;2239;48.152;11.584;2022-11-23T09:37:07;10.20;99.90
4453;DHT22;2239;48.152;11.584;2022-11-23T09:39:32;10.20;99.90
4453;DHT22;2239;48.152;11.584;2022-11-23T09:45:05;9.80;99.90
4453;DHT22;2239;48.152;11.584;2022-11-23T09:47:56;11.20;99.90
4453;DHT22;2239;48.152;11.584;2022-11-23T09:52:58;15.30;91.80
4453;DHT22;2239;48.152;11.584;2022-11-23T09:55:36;16.50;85.60
4453;DHT22;2239;48.152;11.584;2022-11-23T09:58:05;17.60;79.20
4453;DHT22;2239;48.152;11.584;2022-11-23T10:00:42;18.10;75.10
4453;DHT22;2239;48.152;11.584;2022-11-23T10:03:13;18.50;71.50
4453;DHT22;2239;48.152;11.584;2022-11-23T10:05:46;18.90;68.50
4453;DHT22;2239;48.152;11.584;2022-11-23T10:08:36;18.90;66.30
4453;DHT22;2239;48.152;11.584;2022-11-23T10:20:27;20.60;58.30
4453;DHT22;2239;48.152;11.584;2022-11-23T10:22:58;19.80;57.60
4453;DHT22;2239;48.152;11.584;2022-11-23T10:25:48;20.20;58.20
4453;DHT22;2239;48.152;11.584;2022-11-23T10:28:15;20.80;55.80
4453;DHT22;2239;48.152;11.584;2022-11-23T10:30:41;21.90;55.20
4453;DHT22;2239;48.152;11.584;2022-11-23T10:33:37;22.10;51.20
4453;DHT22;2239;48.152;11.584;2022-11-23T10:36:08;21.50;50.30
4453;DHT22;2239;48.152;11.584;2022-11-23T10:38:35;21.90;51.30
4453;DHT22;2239;48.152;11.584;2022-11-23T10:41:05;21.00;49.10
4453;DHT22;2239;48.152;11.584;2022-11-23T10:46:30;21.50;49.40
4453;DHT22;2239;48.152;11.584;2022-11-23T10:49:09;22.30;50.20
4453;DHT22;2239;48.152;11.584;2022-11-23T10:51:38;23.00;48.50
4453;DHT22;2239;48.152;11.584;2022-11-23T10:56:48;22.90;45.90
4453;DHT22;2239;48.152;11.584;2022-11-23T10:59:32;22.40;44.90
4453;DHT22;2239;48.152;11.584;2022-11-23T11:02:15;22.20;47.40
4453;DHT22;2239;48.152;11.584;2022-11-23T11:04:41;22.50;45.30
4453;DHT22;2239;48.152;11.584;2022-11-23T11:07:27;22.60;44.40
4453;DHT22;2239;48.152;11.584;2022-11-23T11:09:56;23.20;45.80
4453;DHT22;2239;48.152;11.584;2022-11-23T11:12:22;23.50;44.90
4453;DHT22;2239;48.152;11.584;2022-11-23T11:14:59;22.10;44.40
4453;DHT22;2239;48.152;11.584;2022-11-23T11:17:37;20.50;46.20
4453;DHT22;2239;48.152;11.584;2022-11-23T11:22:57;16.80;53.80
4453;DHT22;2239;48.152;11.584;2022-11-23T11:25:37;16.00;57.00
4453;DHT22;2239;48.152;11.584;2022-11-23T11:28:05;16.70;56.50
4453;DHT22;2239;48.152;11.584;2022-11-23T11:33:40;19.00;52.40
4453;DHT22;2239;48.152;11.584;2022-11-23T11:36:11;20.00;50.50
4453;DHT22;2239;48.152;11.584;2022-11-23T11:38:39;20.10;49.40
4453;DHT22;2239;48.152;11.584;2022-11-23T11:41:09;20.60;48.20
4453;DHT22;2239;48.152;11.584;2022-11-23T11:43:43;20.90;48.90
4453;DHT22;2239;48.152;11.584;2022-11-23T11:48:45;21.80;46.30
4453;DHT22;2239;48.152;11.584;2022-11-23T11:56:37;18.20;48.90
4453;DHT22;2239;48.152;11.584;2022-11-23T12:02:21;17.70;52.90
4453;DHT22;2239;48.152;11.584;2022-11-23T12:10:40;18.30;50.30
4453;DHT22;2239;48.152;11.584;2022-11-23T12:13:12;18.10;49.30
4453;DHT22;2239;48.152;11.584;2022-11-23T12:15:47;17.80;50.70
4453;DHT22;2239;48.152;11.584;2022-11-23T12:23:38;17.00;52.00
4453;DHT22;2239;48.152;11.584;2022-11-23T12:26:21;16.70;52.50
4453;DHT22;2239;48.152;11.584;2022-11-23T12:29:18;16.20;55.20
4453;DHT22;2239;48.152;11.584;2022-11-23T12:31:50;15.90;56.40
4453;DHT22;2239;48.152;11.584;2022-11-23T12:34:36;15.40;56.70
4453;DHT22;2239;48.152;11.584;2022-11-23T12:43:12;15.30;58.90
4453;DHT22;2239;48.152;11.584;2022-11-23T12:48:47;14.90;62.50
4453;DHT22;2239;48.152;11.584;2022-11-23T12:51:35;15.00;61.90
4453;DHT22;2239;48.152;11.584;2022-11-23T13:00:01;13.20;63.10
4453;DHT22;2239;48.152;11.584;2022-11-23T13:02:52;13.10;64.00
4453;DHT22;2239;48.152;11.584;2022-11-23T13:14:01;11.60;65.80
4453;DHT22;2239;48.152;11.584;2022-11-23T13:21:41;11.30;67.90
4453;DHT22;2239;48.152;11.584;2022-11-23T13:24:27;11.50;68.00
4453;DHT22;2239;48.152;11.584;2022-11-23T13:35:02;11.70;66.60
4453;DHT22;2239;48.152;11.584;2022-11-23T13:37:28;11.50;66.70
4453;DHT22;2239;48.152;11.584;2022-11-23T13:42:24;11.80;65.80
4453;DHT22;2239;48.152;11.584;2022-11-23T13:45:13;11.50;65.70
4453;DHT22;2239;48.152;11.584;2022-11-23T13:47:38;11.30;67.50
4453;DHT22;2239;48.152;11.584;2022-11-23T13:50:22;11.40;71.20
4453;DHT22;2239;48.152;11.584;2022-11-23T13:52:48;11.60;71.20
4453;DHT22;2239;48.152;11.584;2022-11-23T13:57:41;11.50;66.20
4453;DHT22;2239;48.152;11.584;2022-11-23T14:00:45;11.20;63.70
4453;DHT22;2239;48.152;11.584;2022-11-23T14:06:19;11.20;66.70
4453;DHT22;2239;48.152;11.584;2022-11-23T14:08:47;11.20;68.10
4453;DHT22;2239;48.152;11.584;2022-11-23T14:11:18;11.00;72.50
4453;DHT22;2239;48.152;11.584;2022-11-23T14:13:57;10.80;75.50
4453;DHT22;2239;48.152;11.584;2022-11-23T14:25:07;10.40;83.20
4453;DHT22;2239;48.152;11.584;2022-11-23T14:27:49;10.20;84.20
4453;DHT22;2239;48.152;11.584;2022-11-23T14:30:42;10.10;85.50
4453;DHT22;2239;48.152;11.584;2022-11-23T14:41:34;9.70;90.40
4453;DHT22;2239;48.152;11.584;2022-11-23T14:44:02;9.60;91.20
4453;DHT22;2239;48.152;11.584;2022-11-23T14:46:28;9.70;92.10
4453;DHT22;2239;48.152;11.584;2022-11-23T14:49:05;9.70;92.10
4453;DHT22;2239;48.152;11.584;2022-11-23T14:51:32;9.60;92.50
4453;DHT22;2239;48.152;11.584;2022-11-23T14:54:00;9.40;93.30
4453;DHT22;2239;48.152;11.584;2022-11-23T14:56:36;9.30;94.10
4453;DHT22;2239;48.152;11.584;2022-11-23T15:04:28;9.00;96.00
4453;DHT22;2239;48.152;11.584;2022-11-23T15:07:21;8.90;96.60
4453;DHT22;2239;48.152;11.584;2022-11-23T15:10:02;8.80;97.10
4453;DHT22;2239;48.152;11.584;2022-11-23T15:12:44;8.60;97.90
4453;DHT22;2239;48.152;11.584;2022-11-23T15:15:18;8.50;98.80
4453;DHT22;2239;48.152;11.584;2022-11-23T15:17:55;8.40;99.50
4453;DHT22;2239;48.152;11.584;2022-11-23T15:20:23;8.40;99.90
4453;DHT22;2239;48.152;11.584;2022-11-23T15:22:51;8.30;99.90
4453;DHT22;2239;48.152;11.584;2022-11-23T15:25:17;8.20;99.90
4453;DHT22;2239;48.152;11.584;2022-11-23T15:27:45;8.20;99.90
4453;DHT22;2239;48.152;11.584;2022-11-23T15:30:15;8.10;99.90
4453;DHT22;2239;48.152;11.584;2022-11-23T15:32:42;8.10;99.90
4453;DHT22;2239;48.152;11.584;2022-11-23T15:35:11;8.10;99.90
4453;DHT22;2239;48.152;11.584;2022-11-23T15:37:47;8.00;99.90
4453;DHT22;2239;48.152;11.584;2022-11-23T15:40:16;7.90;99.90
4453;DHT22;2239;48.152;11.584;2022-11-23T15:42:43;7.90;99.90
4453;DHT22;2239;48.152;11.584;2022-11-23T15:45:34;7.80;99.90
4453;DHT22;2239;48.152;11.584;2022-11-23T15:48:22;7.70;99.90
4453;DHT22;2239;48.152;11.584;2022-11-23T15:50:55;7.70;99.90
4453;DHT22;2239;48.152;11.584;2022-11-23T15:53:26;7.60;99.90
4453;DHT22;2239;48.152;11.584;2022-11-23T15:55:54;7.60;99.90
4453;DHT22;2239;48.152;11.584;2022-11-23T15:58:22;7.50;99.90
4453;DHT22;2239;48.152;11.584;2022-11-23T16:01:32;7.40;99.90
4453;DHT22;2239;48.152;11.584;2022-11-23T16:03:40;7.30;99.90
4453;DHT22;2239;48.152;11.584;2022-11-23T16:08:36;7.10;99.90
4453;DHT22;2239;48.152;11.584;2022-11-23T16:11:02;7.10;99.90
4453;DHT22;2239;48.152;11.584;2022-11-23T16:13:36;7.00;99.90
4453;DHT22;2239;48.152;11.584;2022-11-23T16:16:04;6.90;99.90
4453;DHT22;2239;48.152;11.584;2022-11-23T16:18:33;6.80;99.90
4453;DHT22;2239;48.152;11.584;2022-11-23T16:21:00;6.80;99.90
4453;DHT22;2239;48.152;11.584;2022-11-23T16:23:48;6.70;99.90
4453;DHT22;2239;48.152;11.584;2022-11-23T16:26:15;6.70;99.90
4453;DHT22;2239;48.152;11.584;2022-11-23T16:28:53;6.60;99.90
4453;DHT22;2239;48.152;11.584;2022-11-23T16:31:35;6.60;99.90
4453;DHT22;2239;48.152;11.584;2022-11-23T16:34:01;6.50;99.90
4453;DHT22;2239;48.152;11.584;2022-11-23T16:36:27;6.50;99.90
4453;DHT22;2239;48.152;11.584;2022-11-23T16:38:54;6.50;99.90
4453;DHT22;2239;48.152;11.584;2022-11-23T16:41:19;6.40;99.90
4453;DHT22;2239;48.152;11.584;2022-11-23T16:43:51;6.40;99.90
4453;DHT22;2239;48.152;11.584;2022-11-23T16:46:18;6.30;99.90
4453;DHT22;2239;48.152;11.584;2022-11-23T16:48:43;6.30;99.90
4453;DHT22;2239;48.152;11.584;2022-11-23T16:51:10;6.20;99.90
4453;DHT22;2239;48.152;11.584;2022-11-23T16:53:40;6.10;99.90
4453;DHT22;2239;48.152;11.584;2022-11-23T16:56:09;6.10;99.90
4453;DHT22;2239;48.152;11.584;2022-11-23T16:58:38;6.00;99.90
4453;DHT22;2239;48.152;11.584;2022-11-23T17:01:04;6.00;99.90
4453;DHT22;2239;48.152;11.584;2022-11-23T17:03:33;6.00;99.90
4453;DHT22;2239;48.152;11.584;2022-11-23T17:05:58;6.00;99.90
4453;DHT22;2239;48.152;11.584;2022-11-23T17:08:24;6.00;99.90
4453;DHT22;2239;48.152;11.584;2022-11-23T17:10:50;5.90;99.90
4453;DHT22;2239;48.152;11.584;2022-11-23T17:13:25;5.90;99.90
4453;DHT22;2239;48.152;11.584;2022-11-23T17:15:51;5.90;99.90
4453;DHT22;2239;48.152;11.584;2022-11-23T17:18:17;5.80;99.90
4453;DHT22;2239;48.152;11.584;2022-11-23T17:21:08;5.80;99.90
4453;DHT22;2239;48.152;11.584;2022-11-23T17:30:14;5.70;99.90
4453;DHT22;2239;48.152;11.584;2022-11-23T17:33:10;5.70;99.90
4453;DHT22;2239;48.152;11.584;2022-11-23T17:35:36;5.60;99.90
4453;DHT22;2239;48.152;11.584;2022-11-23T17:38:37;5.50;99.90
4453;DHT22;2239;48.152;11.584;2022-11-23T17:41:37;5.50;99.90
4453;DHT22;2239;48.152;11.584;2022-11-23T17:44:07;5.40;99.90
4453;DHT22;2239;48.152;11.584;2022-11-23T17:46:50;5.40;99.90
4453;DHT22;2239;48.152;11.584;2022-11-23T17:49:17;5.30;99.90
4453;DHT22;2239;48.152;11.584;2022-11-23T17:51:44;5.30;99.90
4453;DHT22;2239;48.152;11.584;2022-11-23T18:17:44;5.00;99.90
4453;DHT22;2239;48.152;11.584;2022-11-23T18:20:36;5.00;99.90
4453;DHT22;2239;48.152;11.584;2022-11-23T18:23:30;5.00;99.90
4453;DHT22;2239;48.152;11.584;2022-11-23T18:32:22;4.90;99.90
4453;DHT22;2239;48.152;11.584;2022-11-23T18:34:56;4.90;99.90
4453;DHT22;2239;48.152;11.584;2022-11-23T18:37:31;4.90;99.90
4453;DHT22;2239;48.152;11.584;2022-11-23T18:50:03;4.80;99.90
4453;DHT22;2239;48.152;11.584;2022-11-23T19:01:18;4.90;99.90
4453;DHT22;2239;48.152;11.584;2022-11-23T19:03:46;4.90;99.90
4453;DHT22;2239;48.152;11.584;2022-11-23T19:06:12;4.90;99.90
4453;DHT22;2239;48.152;11.584;2022-11-23T19:08:43;5.00;99.90
4453;DHT22;2239;48.152;11.584;2022-11-23T19:11:20;5.00;99.90